Terminal Aerodrome Forecast
Issued by NWS

Home | Current Version | Previous Version | Text Only | Print | Product List | Glossary On
Versions: 1 2 3 4 5 6 7 8 9 10 11 12 13 14 15 16 17 18 19 20 21 22 23 24
000
FTUS46 KSGX 302100 AAA
TAFSAN
TAF AMD
KSAN 302102Z 3021/3124 32005KT P6SM VCSH FEW030 OVC080
     FM310100 VRB04KT P6SM VCSH SCT025 OVC050
      TEMPO 3106/3110 -SHRA BKN020
     FM311000 VRB03KT P6SM VCSH BKN025 OVC030
     FM311900 25008KT P6SM SCT025 BKN040=

USA.gov is the U.S. government's official web portal to all federal, state and local government web resources and services.